sensor_id;sensor_type;location;lat;lon;timestamp;temperature;humidity
7846;DHT22;3968;51.424;6.788;2023-02-16T00:01:50;6.70;99.90
7846;DHT22;3968;51.424;6.788;2023-02-16T00:04:22;6.70;99.90
7846;DHT22;3968;51.424;6.788;2023-02-16T00:06:49;6.70;99.90
7846;DHT22;3968;51.424;6.788;2023-02-16T00:09:16;6.70;99.90
7846;DHT22;3968;51.424;6.788;2023-02-16T00:11:42;6.60;99.90
7846;DHT22;3968;51.424;6.788;2023-02-16T00:14:27;6.60;99.90
7846;DHT22;3968;51.424;6.788;2023-02-16T00:16:53;6.60;99.90
7846;DHT22;3968;51.424;6.788;2023-02-16T00:19:32;6.50;99.90
7846;DHT22;3968;51.424;6.788;2023-02-16T00:21:59;6.50;99.90
7846;DHT22;3968;51.424;6.788;2023-02-16T00:24:26;6.50;99.90
7846;DHT22;3968;51.424;6.788;2023-02-16T00:26:52;6.50;99.90
7846;DHT22;3968;51.424;6.788;2023-02-16T00:31:54;6.50;99.90
7846;DHT22;3968;51.424;6.788;2023-02-16T00:34:38;6.40;99.90
7846;DHT22;3968;51.424;6.788;2023-02-16T00:37:07;6.40;99.90
7846;DHT22;3968;51.424;6.788;2023-02-16T00:39:33;6.40;99.90
7846;DHT22;3968;51.424;6.788;2023-02-16T00:42:02;6.40;99.90
7846;DHT22;3968;51.424;6.788;2023-02-16T00:44:39;6.40;99.90
7846;DHT22;3968;51.424;6.788;2023-02-16T00:47:35;6.40;99.90
7846;DHT22;3968;51.424;6.788;2023-02-16T00:50:05;6.30;99.90
7846;DHT22;3968;51.424;6.788;2023-02-16T00:52:37;6.30;99.90
7846;DHT22;3968;51.424;6.788;2023-02-16T00:55:06;6.20;99.90
7846;DHT22;3968;51.424;6.788;2023-02-16T00:57:39;6.20;99.90
7846;DHT22;3968;51.424;6.788;2023-02-16T01:00:15;6.20;99.90
7846;DHT22;3968;51.424;6.788;2023-02-16T01:02:46;6.20;99.90
7846;DHT22;3968;51.424;6.788;2023-02-16T01:05:12;6.20;99.90
7846;DHT22;3968;51.424;6.788;2023-02-16T01:07:38;6.20;99.90
7846;DHT22;3968;51.424;6.788;2023-02-16T01:10:23;6.20;99.90
7846;DHT22;3968;51.424;6.788;2023-02-16T01:13:07;6.20;99.90
7846;DHT22;3968;51.424;6.788;2023-02-16T01:15:33;6.10;99.90
7846;DHT22;3968;51.424;6.788;2023-02-16T01:17:59;6.10;99.90
7846;DHT22;3968;51.424;6.788;2023-02-16T01:20:25;6.10;99.90
7846;DHT22;3968;51.424;6.788;2023-02-16T01:22:51;6.10;99.90
7846;DHT22;3968;51.424;6.788;2023-02-16T01:25:16;6.10;99.90
7846;DHT22;3968;51.424;6.788;2023-02-16T01:27:43;6.10;99.90
7846;DHT22;3968;51.424;6.788;2023-02-16T01:30:15;6.10;99.90
7846;DHT22;3968;51.424;6.788;2023-02-16T01:32:41;6.00;99.90
7846;DHT22;3968;51.424;6.788;2023-02-16T01:35:07;6.10;99.90
7846;DHT22;3968;51.424;6.788;2023-02-16T01:37:32;6.00;99.90
7846;DHT22;3968;51.424;6.788;2023-02-16T01:39:58;6.00;99.90
7846;DHT22;3968;51.424;6.788;2023-02-16T01:42:50;6.00;99.90
7846;DHT22;3968;51.424;6.788;2023-02-16T01:45:22;6.00;99.90
7846;DHT22;3968;51.424;6.788;2023-02-16T01:48:00;5.90;99.90
7846;DHT22;3968;51.424;6.788;2023-02-16T01:50:51;6.00;99.90
7846;DHT22;3968;51.424;6.788;2023-02-16T01:53:22;6.00;99.90
7846;DHT22;3968;51.424;6.788;2023-02-16T01:55:56;6.00;99.90
7846;DHT22;3968;51.424;6.788;2023-02-16T01:58:37;6.00;99.90
7846;DHT22;3968;51.424;6.788;2023-02-16T02:03:34;5.90;99.90
7846;DHT22;3968;51.424;6.788;2023-02-16T02:06:32;5.90;99.90
7846;DHT22;3968;51.424;6.788;2023-02-16T02:09:12;5.90;99.90
7846;DHT22;3968;51.424;6.788;2023-02-16T02:11:44;5.90;99.90
7846;DHT22;3968;51.424;6.788;2023-02-16T02:14:18;5.90;99.90
7846;DHT22;3968;51.424;6.788;2023-02-16T02:16:55;5.90;99.90
7846;DHT22;3968;51.424;6.788;2023-02-16T02:19:22;5.90;99.90
7846;DHT22;3968;51.424;6.788;2023-02-16T02:25:44;5.80;99.90
7846;DHT22;3968;51.424;6.788;2023-02-16T02:28:21;5.80;99.90
7846;DHT22;3968;51.424;6.788;2023-02-16T02:30:54;5.80;99.90
7846;DHT22;3968;51.424;6.788;2023-02-16T02:39:16;5.80;99.90
7846;DHT22;3968;51.424;6.788;2023-02-16T02:44:51;5.70;99.90
7846;DHT22;3968;51.424;6.788;2023-02-16T02:47:18;5.70;99.90
7846;DHT22;3968;51.424;6.788;2023-02-16T02:49:51;5.80;99.90
7846;DHT22;3968;51.424;6.788;2023-02-16T02:52:18;5.80;99.90
7846;DHT22;3968;51.424;6.788;2023-02-16T02:54:45;5.70;99.90
7846;DHT22;3968;51.424;6.788;2023-02-16T02:57:46;5.70;99.90
7846;DHT22;3968;51.424;6.788;2023-02-16T03:00:37;5.70;99.90
7846;DHT22;3968;51.424;6.788;2023-02-16T03:03:24;5.70;99.90
7846;DHT22;3968;51.424;6.788;2023-02-16T03:08:23;5.70;99.90
7846;DHT22;3968;51.424;6.788;2023-02-16T03:10:53;5.70;99.90
7846;DHT22;3968;51.424;6.788;2023-02-16T03:13:42;5.70;99.90
7846;DHT22;3968;51.424;6.788;2023-02-16T03:16:19;5.70;99.90
7846;DHT22;3968;51.424;6.788;2023-02-16T03:18:46;5.70;99.90
7846;DHT22;3968;51.424;6.788;2023-02-16T03:21:32;5.60;99.90
7846;DHT22;3968;51.424;6.788;2023-02-16T03:24:27;5.70;99.90
7846;DHT22;3968;51.424;6.788;2023-02-16T03:27:14;5.70;99.90
7846;DHT22;3968;51.424;6.788;2023-02-16T03:29:59;5.70;99.90
7846;DHT22;3968;51.424;6.788;2023-02-16T03:32:26;5.70;99.90
7846;DHT22;3968;51.424;6.788;2023-02-16T03:34:51;5.80;99.90
7846;DHT22;3968;51.424;6.788;2023-02-16T03:37:17;5.80;99.90
7846;DHT22;3968;51.424;6.788;2023-02-16T03:39:43;5.80;99.90
7846;DHT22;3968;51.424;6.788;2023-02-16T03:42:27;5.80;99.90
7846;DHT22;3968;51.424;6.788;2023-02-16T03:44:53;5.70;99.90
7846;DHT22;3968;51.424;6.788;2023-02-16T03:47:18;5.70;99.90
7846;DHT22;3968;51.424;6.788;2023-02-16T03:49:44;5.60;99.90
7846;DHT22;3968;51.424;6.788;2023-02-16T03:52:10;5.60;99.90
7846;DHT22;3968;51.424;6.788;2023-02-16T03:54:35;5.60;99.90
7846;DHT22;3968;51.424;6.788;2023-02-16T03:57:01;5.60;99.90
7846;DHT22;3968;51.424;6.788;2023-02-16T03:59:26;5.60;99.90
7846;DHT22;3968;51.424;6.788;2023-02-16T04:01:52;5.60;99.90
7846;DHT22;3968;51.424;6.788;2023-02-16T04:04:18;5.60;99.90
7846;DHT22;3968;51.424;6.788;2023-02-16T04:06:43;5.60;99.90
7846;DHT22;3968;51.424;6.788;2023-02-16T04:09:09;5.60;99.90
7846;DHT22;3968;51.424;6.788;2023-02-16T04:11:35;5.60;99.90
7846;DHT22;3968;51.424;6.788;2023-02-16T04:14:19;5.60;99.90
7846;DHT22;3968;51.424;6.788;2023-02-16T04:16:45;5.60;99.90
7846;DHT22;3968;51.424;6.788;2023-02-16T04:19:10;5.60;99.90
7846;DHT22;3968;51.424;6.788;2023-02-16T04:21:36;5.60;99.90
7846;DHT22;3968;51.424;6.788;2023-02-16T04:24:02;5.60;99.90
7846;DHT22;3968;51.424;6.788;2023-02-16T04:26:30;5.50;99.90
7846;DHT22;3968;51.424;6.788;2023-02-16T04:28:56;5.50;99.90
7846;DHT22;3968;51.424;6.788;2023-02-16T04:31:22;5.50;99.90
7846;DHT22;3968;51.424;6.788;2023-02-16T04:33:47;5.50;99.90
7846;DHT22;3968;51.424;6.788;2023-02-16T04:36:13;5.50;99.90
7846;DHT22;3968;51.424;6.788;2023-02-16T04:38:38;5.50;99.90
7846;DHT22;3968;51.424;6.788;2023-02-16T04:41:04;5.50;99.90
7846;DHT22;3968;51.424;6.788;2023-02-16T04:43:30;5.40;99.90
7846;DHT22;3968;51.424;6.788;2023-02-16T04:45:56;5.40;99.90
7846;DHT22;3968;51.424;6.788;2023-02-16T04:48:22;5.40;99.90
7846;DHT22;3968;51.424;6.788;2023-02-16T04:50:49;5.40;99.90
7846;DHT22;3968;51.424;6.788;2023-02-16T04:53:14;5.40;99.90
7846;DHT22;3968;51.424;6.788;2023-02-16T04:55:47;5.30;99.90
7846;DHT22;3968;51.424;6.788;2023-02-16T04:58:14;5.30;99.90
7846;DHT22;3968;51.424;6.788;2023-02-16T05:00:40;5.30;99.90
7846;DHT22;3968;51.424;6.788;2023-02-16T05:03:06;5.30;99.90
7846;DHT22;3968;51.424;6.788;2023-02-16T05:05:32;5.30;99.90
7846;DHT22;3968;51.424;6.788;2023-02-16T05:08:00;5.30;99.90
7846;DHT22;3968;51.424;6.788;2023-02-16T05:10:25;5.30;99.90
7846;DHT22;3968;51.424;6.788;2023-02-16T05:12:51;5.30;99.90
7846;DHT22;3968;51.424;6.788;2023-02-16T05:15:35;5.30;99.90
7846;DHT22;3968;51.424;6.788;2023-02-16T05:18:00;5.30;99.90
7846;DHT22;3968;51.424;6.788;2023-02-16T05:20:26;5.30;99.90
7846;DHT22;3968;51.424;6.788;2023-02-16T05:23:12;5.40;99.90
7846;DHT22;3968;51.424;6.788;2023-02-16T05:25:37;5.40;99.90
7846;DHT22;3968;51.424;6.788;2023-02-16T05:28:03;5.40;99.90
7846;DHT22;3968;51.424;6.788;2023-02-16T05:30:29;5.40;99.90
7846;DHT22;3968;51.424;6.788;2023-02-16T05:32:55;5.40;99.90
7846;DHT22;3968;51.424;6.788;2023-02-16T05:35:20;5.50;99.90
7846;DHT22;3968;51.424;6.788;2023-02-16T05:37:46;5.50;99.90
7846;DHT22;3968;51.424;6.788;2023-02-16T05:40:12;5.50;99.90
7846;DHT22;3968;51.424;6.788;2023-02-16T05:42:37;5.50;99.90
7846;DHT22;3968;51.424;6.788;2023-02-16T05:45:03;5.50;99.90
7846;DHT22;3968;51.424;6.788;2023-02-16T05:47:29;5.50;99.90
7846;DHT22;3968;51.424;6.788;2023-02-16T05:49:54;5.60;99.90
7846;DHT22;3968;51.424;6.788;2023-02-16T05:52:20;5.60;99.90
7846;DHT22;3968;51.424;6.788;2023-02-16T05:54:45;5.60;99.90
7846;DHT22;3968;51.424;6.788;2023-02-16T05:57:11;5.60;99.90
7846;DHT22;3968;51.424;6.788;2023-02-16T05:59:37;5.70;99.90
7846;DHT22;3968;51.424;6.788;2023-02-16T06:02:02;5.70;99.90
7846;DHT22;3968;51.424;6.788;2023-02-16T06:04:28;5.70;99.90
7846;DHT22;3968;51.424;6.788;2023-02-16T06:06:54;5.70;99.90
7846;DHT22;3968;51.424;6.788;2023-02-16T06:09:19;5.70;99.90
7846;DHT22;3968;51.424;6.788;2023-02-16T06:11:45;5.70;99.90
7846;DHT22;3968;51.424;6.788;2023-02-16T06:14:16;5.70;99.90
7846;DHT22;3968;51.424;6.788;2023-02-16T06:16:45;5.70;99.90
7846;DHT22;3968;51.424;6.788;2023-02-16T06:19:12;5.80;99.90
7846;DHT22;3968;51.424;6.788;2023-02-16T06:21:38;5.80;99.90
7846;DHT22;3968;51.424;6.788;2023-02-16T06:24:06;5.80;99.90
7846;DHT22;3968;51.424;6.788;2023-02-16T06:26:32;5.80;99.90
7846;DHT22;3968;51.424;6.788;2023-02-16T06:28:57;5.80;99.90
7846;DHT22;3968;51.424;6.788;2023-02-16T06:31:23;5.80;99.90
7846;DHT22;3968;51.424;6.788;2023-02-16T06:33:50;5.80;99.90
7846;DHT22;3968;51.424;6.788;2023-02-16T06:36:16;5.90;99.90
7846;DHT22;3968;51.424;6.788;2023-02-16T06:38:42;5.90;99.90
7846;DHT22;3968;51.424;6.788;2023-02-16T06:41:08;5.80;99.90
7846;DHT22;3968;51.424;6.788;2023-02-16T06:43:34;5.90;99.90
7846;DHT22;3968;51.424;6.788;2023-02-16T06:45:59;5.90;99.90
7846;DHT22;3968;51.424;6.788;2023-02-16T06:48:25;5.90;99.90
7846;DHT22;3968;51.424;6.788;2023-02-16T06:50:51;5.90;99.90
7846;DHT22;3968;51.424;6.788;2023-02-16T06:53:17;6.00;99.90
7846;DHT22;3968;51.424;6.788;2023-02-16T06:55:42;6.00;99.90
7846;DHT22;3968;51.424;6.788;2023-02-16T06:58:08;6.10;99.90
7846;DHT22;3968;51.424;6.788;2023-02-16T07:00:34;6.10;99.90
7846;DHT22;3968;51.424;6.788;2023-02-16T07:03:00;6.20;99.90
7846;DHT22;3968;51.424;6.788;2023-02-16T07:05:25;6.20;99.90
7846;DHT22;3968;51.424;6.788;2023-02-16T07:07:51;6.20;99.90
7846;DHT22;3968;51.424;6.788;2023-02-16T07:10:17;6.30;99.90
7846;DHT22;3968;51.424;6.788;2023-02-16T07:12:45;6.30;99.90
7846;DHT22;3968;51.424;6.788;2023-02-16T07:15:11;6.30;99.90
7846;DHT22;3968;51.424;6.788;2023-02-16T07:17:36;6.30;99.90
7846;DHT22;3968;51.424;6.788;2023-02-16T07:20:03;6.40;99.90
7846;DHT22;3968;51.424;6.788;2023-02-16T07:22:30;6.30;99.90
7846;DHT22;3968;51.424;6.788;2023-02-16T07:24:55;6.30;99.90
7846;DHT22;3968;51.424;6.788;2023-02-16T07:27:22;6.40;99.90
7846;DHT22;3968;51.424;6.788;2023-02-16T07:29:48;6.40;99.90
7846;DHT22;3968;51.424;6.788;2023-02-16T07:32:13;6.40;99.90
7846;DHT22;3968;51.424;6.788;2023-02-16T07:34:39;6.40;99.90
7846;DHT22;3968;51.424;6.788;2023-02-16T07:37:05;6.50;99.90
7846;DHT22;3968;51.424;6.788;2023-02-16T07:39:30;6.50;99.90
7846;DHT22;3968;51.424;6.788;2023-02-16T07:41:56;6.50;99.90
7846;DHT22;3968;51.424;6.788;2023-02-16T07:44:22;6.60;99.90
7846;DHT22;3968;51.424;6.788;2023-02-16T07:46:47;6.60;99.90
7846;DHT22;3968;51.424;6.788;2023-02-16T07:49:13;6.70;99.90
7846;DHT22;3968;51.424;6.788;2023-02-16T07:51:38;6.70;99.90
7846;DHT22;3968;51.424;6.788;2023-02-16T07:54:05;6.70;99.90
7846;DHT22;3968;51.424;6.788;2023-02-16T07:56:32;6.80;99.90
7846;DHT22;3968;51.424;6.788;2023-02-16T07:58:59;6.80;99.90
7846;DHT22;3968;51.424;6.788;2023-02-16T08:01:25;6.90;99.90
7846;DHT22;3968;51.424;6.788;2023-02-16T08:03:51;7.00;99.90
7846;DHT22;3968;51.424;6.788;2023-02-16T08:06:17;7.00;99.90
7846;DHT22;3968;51.424;6.788;2023-02-16T08:08:43;7.10;99.90
7846;DHT22;3968;51.424;6.788;2023-02-16T08:11:17;7.20;99.90
7846;DHT22;3968;51.424;6.788;2023-02-16T08:13:44;7.20;99.90
7846;DHT22;3968;51.424;6.788;2023-02-16T08:16:12;7.30;99.90
7846;DHT22;3968;51.424;6.788;2023-02-16T08:18:39;7.30;99.90
7846;DHT22;3968;51.424;6.788;2023-02-16T08:21:10;7.30;99.90
7846;DHT22;3968;51.424;6.788;2023-02-16T08:23:43;7.30;99.90
7846;DHT22;3968;51.424;6.788;2023-02-16T08:26:15;7.30;99.90
7846;DHT22;3968;51.424;6.788;2023-02-16T08:28:42;7.30;99.90
7846;DHT22;3968;51.424;6.788;2023-02-16T08:31:13;7.30;99.90
7846;DHT22;3968;51.424;6.788;2023-02-16T08:33:39;7.40;99.90
7846;DHT22;3968;51.424;6.788;2023-02-16T08:36:05;7.40;99.90
7846;DHT22;3968;51.424;6.788;2023-02-16T08:38:35;7.40;99.90
7846;DHT22;3968;51.424;6.788;2023-02-16T08:41:01;7.40;99.90
7846;DHT22;3968;51.424;6.788;2023-02-16T08:43:26;7.40;99.90
7846;DHT22;3968;51.424;6.788;2023-02-16T08:45:52;7.50;99.90
7846;DHT22;3968;51.424;6.788;2023-02-16T08:48:18;7.60;99.90
7846;DHT22;3968;51.424;6.788;2023-02-16T08:50:47;7.70;99.90
7846;DHT22;3968;51.424;6.788;2023-02-16T08:53:19;7.80;99.90
7846;DHT22;3968;51.424;6.788;2023-02-16T08:55:55;7.90;99.90
7846;DHT22;3968;51.424;6.788;2023-02-16T08:58:22;7.90;99.90
7846;DHT22;3968;51.424;6.788;2023-02-16T09:00:49;8.00;99.90
7846;DHT22;3968;51.424;6.788;2023-02-16T09:03:16;8.00;99.90
7846;DHT22;3968;51.424;6.788;2023-02-16T09:05:48;8.10;99.90
7846;DHT22;3968;51.424;6.788;2023-02-16T09:08:14;8.10;99.90
7846;DHT22;3968;51.424;6.788;2023-02-16T09:10:40;8.20;99.90
7846;DHT22;3968;51.424;6.788;2023-02-16T09:13:06;8.20;99.90
7846;DHT22;3968;51.424;6.788;2023-02-16T09:15:35;8.30;99.90
7846;DHT22;3968;51.424;6.788;2023-02-16T09:18:02;8.30;99.90
7846;DHT22;3968;51.424;6.788;2023-02-16T09:20:28;8.40;99.90
7846;DHT22;3968;51.424;6.788;2023-02-16T09:22:53;8.40;99.90
7846;DHT22;3968;51.424;6.788;2023-02-16T09:25:20;8.50;99.90
7846;DHT22;3968;51.424;6.788;2023-02-16T09:27:46;8.60;99.90
7846;DHT22;3968;51.424;6.788;2023-02-16T09:30:12;8.70;99.90
7846;DHT22;3968;51.424;6.788;2023-02-16T09:32:37;8.80;99.90
7846;DHT22;3968;51.424;6.788;2023-02-16T09:35:04;8.80;99.90
7846;DHT22;3968;51.424;6.788;2023-02-16T09:37:31;8.80;99.90
7846;DHT22;3968;51.424;6.788;2023-02-16T09:39:57;8.90;99.90
7846;DHT22;3968;51.424;6.788;2023-02-16T09:42:50;8.90;99.90
7846;DHT22;3968;51.424;6.788;2023-02-16T09:45:18;8.90;99.90
7846;DHT22;3968;51.424;6.788;2023-02-16T09:47:47;8.80;99.90
7846;DHT22;3968;51.424;6.788;2023-02-16T09:50:21;8.80;99.90
7846;DHT22;3968;51.424;6.788;2023-02-16T09:55:19;8.90;99.90
7846;DHT22;3968;51.424;6.788;2023-02-16T09:57:58;8.90;99.90
7846;DHT22;3968;51.424;6.788;2023-02-16T10:06:22;8.80;99.90
7846;DHT22;3968;51.424;6.788;2023-02-16T10:08:58;8.80;99.90
7846;DHT22;3968;51.424;6.788;2023-02-16T10:11:31;8.80;99.90
7846;DHT22;3968;51.424;6.788;2023-02-16T10:16:44;8.80;99.90
7846;DHT22;3968;51.424;6.788;2023-02-16T10:19:22;8.80;99.90
7846;DHT22;3968;51.424;6.788;2023-02-16T10:21:54;8.80;99.90
7846;DHT22;3968;51.424;6.788;2023-02-16T10:24:20;8.80;99.90
7846;DHT22;3968;51.424;6.788;2023-02-16T10:27:09;8.80;99.90
7846;DHT22;3968;51.424;6.788;2023-02-16T10:29:38;8.80;99.90
7846;DHT22;3968;51.424;6.788;2023-02-16T10:32:11;8.80;99.90
7846;DHT22;3968;51.424;6.788;2023-02-16T10:43:37;8.90;99.90
7846;DHT22;3968;51.424;6.788;2023-02-16T10:46:04;9.10;99.90
7846;DHT22;3968;51.424;6.788;2023-02-16T10:48:30;9.10;99.90
7846;DHT22;3968;51.424;6.788;2023-02-16T10:50:57;9.10;99.90
7846;DHT22;3968;51.424;6.788;2023-02-16T10:53:41;9.20;99.90
7846;DHT22;3968;51.424;6.788;2023-02-16T10:56:32;9.30;99.90
7846;DHT22;3968;51.424;6.788;2023-02-16T10:59:06;9.40;99.90
7846;DHT22;3968;51.424;6.788;2023-02-16T11:01:42;9.50;99.90
7846;DHT22;3968;51.424;6.788;2023-02-16T11:07:21;9.70;99.90
7846;DHT22;3968;51.424;6.788;2023-02-16T11:09:49;9.70;99.90
7846;DHT22;3968;51.424;6.788;2023-02-16T11:14:57;9.80;99.90
7846;DHT22;3968;51.424;6.788;2023-02-16T11:17:24;9.80;99.90
7846;DHT22;3968;51.424;6.788;2023-02-16T11:19:57;9.90;99.90
7846;DHT22;3968;51.424;6.788;2023-02-16T11:22:43;9.80;99.90
7846;DHT22;3968;51.424;6.788;2023-02-16T11:25:18;9.80;99.90
7846;DHT22;3968;51.424;6.788;2023-02-16T11:27:56;9.80;99.90
7846;DHT22;3968;51.424;6.788;2023-02-16T11:30:37;9.70;99.90
7846;DHT22;3968;51.424;6.788;2023-02-16T11:33:25;9.70;99.90
7846;DHT22;3968;51.424;6.788;2023-02-16T11:35:52;9.80;99.90
7846;DHT22;3968;51.424;6.788;2023-02-16T11:38:35;9.80;99.90
7846;DHT22;3968;51.424;6.788;2023-02-16T11:41:03;9.80;99.90
7846;DHT22;3968;51.424;6.788;2023-02-16T11:43:35;9.80;99.90
7846;DHT22;3968;51.424;6.788;2023-02-16T11:46:15;9.80;99.90
7846;DHT22;3968;51.424;6.788;2023-02-16T11:48:42;9.80;99.90
7846;DHT22;3968;51.424;6.788;2023-02-16T11:51:11;9.80;99.90
7846;DHT22;3968;51.424;6.788;2023-02-16T11:53:41;9.80;99.90
7846;DHT22;3968;51.424;6.788;2023-02-16T11:56:32;9.80;99.90
7846;DHT22;3968;51.424;6.788;2023-02-16T12:08:06;9.90;99.90
7846;DHT22;3968;51.424;6.788;2023-02-16T12:16:18;10.00;99.90
7846;DHT22;3968;51.424;6.788;2023-02-16T12:19:23;10.10;99.90
7846;DHT22;3968;51.424;6.788;2023-02-16T12:21:40;10.20;99.90
7846;DHT22;3968;51.424;6.788;2023-02-16T12:24:38;10.20;99.90
7846;DHT22;3968;51.424;6.788;2023-02-16T12:43:41;10.40;99.90
7846;DHT22;3968;51.424;6.788;2023-02-16T12:46:16;10.50;99.90
7846;DHT22;3968;51.424;6.788;2023-02-16T12:48:52;10.60;99.90
7846;DHT22;3968;51.424;6.788;2023-02-16T12:51:33;10.60;99.90
7846;DHT22;3968;51.424;6.788;2023-02-16T12:54:32;10.70;99.90
7846;DHT22;3968;51.424;6.788;2023-02-16T12:57:14;10.70;99.90
7846;DHT22;3968;51.424;6.788;2023-02-16T12:59:41;10.70;99.90
7846;DHT22;3968;51.424;6.788;2023-02-16T13:02:36;10.60;99.90
7846;DHT22;3968;51.424;6.788;2023-02-16T13:05:21;10.60;99.90
7846;DHT22;3968;51.424;6.788;2023-02-16T13:13:20;10.50;99.90
7846;DHT22;3968;51.424;6.788;2023-02-16T13:16:21;10.50;99.90
7846;DHT22;3968;51.424;6.788;2023-02-16T13:18:49;10.50;99.90
7846;DHT22;3968;51.424;6.788;2023-02-16T13:21:37;10.50;99.90
7846;DHT22;3968;51.424;6.788;2023-02-16T13:40:58;10.60;99.90
7846;DHT22;3968;51.424;6.788;2023-02-16T13:46:05;10.50;99.90
7846;DHT22;3968;51.424;6.788;2023-02-16T13:48:46;10.40;99.90
7846;DHT22;3968;51.424;6.788;2023-02-16T13:51:16;10.40;99.90
7846;DHT22;3968;51.424;6.788;2023-02-16T13:54:02;10.30;99.90
7846;DHT22;3968;51.424;6.788;2023-02-16T13:58:54;10.30;99.90
7846;DHT22;3968;51.424;6.788;2023-02-16T14:03:57;10.20;99.90
7846;DHT22;3968;51.424;6.788;2023-02-16T14:16:50;10.30;99.90
7846;DHT22;3968;51.424;6.788;2023-02-16T14:19:18;10.30;99.90
7846;DHT22;3968;51.424;6.788;2023-02-16T14:21:48;10.40;99.90
7846;DHT22;3968;51.424;6.788;2023-02-16T14:24:31;10.50;99.90
7846;DHT22;3968;51.424;6.788;2023-02-16T14:29:36;10.50;99.90
7846;DHT22;3968;51.424;6.788;2023-02-16T14:39:46;10.50;99.90
7846;DHT22;3968;51.424;6.788;2023-02-16T14:42:28;10.50;99.90
7846;DHT22;3968;51.424;6.788;2023-02-16T14:47:38;10.50;99.90
7846;DHT22;3968;51.424;6.788;2023-02-16T14:50:21;10.50;99.90
7846;DHT22;3968;51.424;6.788;2023-02-16T15:01:17;10.60;99.90
7846;DHT22;3968;51.424;6.788;2023-02-16T15:03:48;10.60;99.90
7846;DHT22;3968;51.424;6.788;2023-02-16T15:08:53;10.70;99.90
7846;DHT22;3968;51.424;6.788;2023-02-16T15:11:52;10.70;99.90
7846;DHT22;3968;51.424;6.788;2023-02-16T15:14:46;10.70;99.90
7846;DHT22;3968;51.424;6.788;2023-02-16T15:17:37;10.80;99.90
7846;DHT22;3968;51.424;6.788;2023-02-16T15:20:23;10.80;99.90
7846;DHT22;3968;51.424;6.788;2023-02-16T15:22:57;10.80;99.90
7846;DHT22;3968;51.424;6.788;2023-02-16T15:25:30;10.80;99.90
7846;DHT22;3968;51.424;6.788;2023-02-16T15:28:00;10.80;99.90
7846;DHT22;3968;51.424;6.788;2023-02-16T15:30:31;10.80;99.90
7846;DHT22;3968;51.424;6.788;2023-02-16T15:33:00;10.80;99.90
7846;DHT22;3968;51.424;6.788;2023-02-16T15:35:42;10.90;99.90
7846;DHT22;3968;51.424;6.788;2023-02-16T15:40:38;10.90;99.90
7846;DHT22;3968;51.424;6.788;2023-02-16T15:45:55;10.90;99.90
7846;DHT22;3968;51.424;6.788;2023-02-16T15:48:25;10.90;99.90
7846;DHT22;3968;51.424;6.788;2023-02-16T15:50:53;10.90;99.90
7846;DHT22;3968;51.424;6.788;2023-02-16T15:56:29;10.80;99.90
7846;DHT22;3968;51.424;6.788;2023-02-16T15:58:59;10.80;99.90
7846;DHT22;3968;51.424;6.788;2023-02-16T16:01:29;10.80;99.90
7846;DHT22;3968;51.424;6.788;2023-02-16T16:04:23;10.80;99.90
7846;DHT22;3968;51.424;6.788;2023-02-16T16:06:49;10.80;99.90
7846;DHT22;3968;51.424;6.788;2023-02-16T16:09:24;10.80;99.90
7846;DHT22;3968;51.424;6.788;2023-02-16T16:11:53;10.70;99.90
7846;DHT22;3968;51.424;6.788;2023-02-16T16:14:20;10.70;99.90
7846;DHT22;3968;51.424;6.788;2023-02-16T16:16:46;10.70;99.90
7846;DHT22;3968;51.424;6.788;2023-02-16T16:19:37;10.70;99.90
7846;DHT22;3968;51.424;6.788;2023-02-16T16:22:53;10.60;99.90
7846;DHT22;3968;51.424;6.788;2023-02-16T16:24:50;10.70;99.90
7846;DHT22;3968;51.424;6.788;2023-02-16T16:27:28;10.60;99.90
7846;DHT22;3968;51.424;6.788;2023-02-16T16:30:10;10.60;99.90
7846;DHT22;3968;51.424;6.788;2023-02-16T16:32:37;10.60;99.90
7846;DHT22;3968;51.424;6.788;2023-02-16T16:35:20;10.60;99.90
7846;DHT22;3968;51.424;6.788;2023-02-16T16:37:50;10.50;99.90
7846;DHT22;3968;51.424;6.788;2023-02-16T16:45:40;10.50;99.90
7846;DHT22;3968;51.424;6.788;2023-02-16T16:48:18;10.50;99.90
7846;DHT22;3968;51.424;6.788;2023-02-16T16:50:46;10.60;99.90
7846;DHT22;3968;51.424;6.788;2023-02-16T16:55:53;10.60;99.90
7846;DHT22;3968;51.424;6.788;2023-02-16T16:58:19;10.60;99.90
7846;DHT22;3968;51.424;6.788;2023-02-16T17:00:44;10.60;99.90
7846;DHT22;3968;51.424;6.788;2023-02-16T17:03:15;10.60;99.90
7846;DHT22;3968;51.424;6.788;2023-02-16T17:05:43;10.60;99.90
7846;DHT22;3968;51.424;6.788;2023-02-16T17:08:09;10.70;99.90
7846;DHT22;3968;51.424;6.788;2023-02-16T17:10:37;10.70;99.90
7846;DHT22;3968;51.424;6.788;2023-02-16T17:13:04;10.60;99.90
7846;DHT22;3968;51.424;6.788;2023-02-16T17:15:51;10.70;99.90
7846;DHT22;3968;51.424;6.788;2023-02-16T17:18:19;10.70;99.90
7846;DHT22;3968;51.424;6.788;2023-02-16T17:20:45;10.70;99.90
7846;DHT22;3968;51.424;6.788;2023-02-16T17:23:16;10.70;99.90
7846;DHT22;3968;51.424;6.788;2023-02-16T17:25:42;10.70;99.90
7846;DHT22;3968;51.424;6.788;2023-02-16T17:28:09;10.70;99.90
7846;DHT22;3968;51.424;6.788;2023-02-16T17:30:35;10.70;99.90
7846;DHT22;3968;51.424;6.788;2023-02-16T17:33:02;10.70;99.90
7846;DHT22;3968;51.424;6.788;2023-02-16T17:35:29;10.80;99.90
7846;DHT22;3968;51.424;6.788;2023-02-16T17:37:55;10.80;99.90
7846;DHT22;3968;51.424;6.788;2023-02-16T17:40:21;10.70;99.90
7846;DHT22;3968;51.424;6.788;2023-02-16T17:42:48;10.80;99.90
7846;DHT22;3968;51.424;6.788;2023-02-16T17:45:16;10.80;99.90
7846;DHT22;3968;51.424;6.788;2023-02-16T17:47:43;10.80;99.90
7846;DHT22;3968;51.424;6.788;2023-02-16T17:50:11;10.80;99.90
7846;DHT22;3968;51.424;6.788;2023-02-16T17:52:39;10.80;99.90
7846;DHT22;3968;51.424;6.788;2023-02-16T17:55:05;10.90;99.90
7846;DHT22;3968;51.424;6.788;2023-02-16T17:57:31;10.90;99.90
7846;DHT22;3968;51.424;6.788;2023-02-16T17:59:56;10.80;99.90
7846;DHT22;3968;51.424;6.788;2023-02-16T18:02:22;10.90;99.90
7846;DHT22;3968;51.424;6.788;2023-02-16T18:04:48;10.90;99.90
7846;DHT22;3968;51.424;6.788;2023-02-16T18:07:14;10.90;99.90
7846;DHT22;3968;51.424;6.788;2023-02-16T18:09:41;10.90;99.90
7846;DHT22;3968;51.424;6.788;2023-02-16T18:12:07;10.90;99.90
7846;DHT22;3968;51.424;6.788;2023-02-16T18:14:32;10.90;99.90
7846;DHT22;3968;51.424;6.788;2023-02-16T18:17:00;10.90;99.90
7846;DHT22;3968;51.424;6.788;2023-02-16T18:19:26;10.90;99.90
7846;DHT22;3968;51.424;6.788;2023-02-16T18:21:52;10.90;99.90
7846;DHT22;3968;51.424;6.788;2023-02-16T18:24:18;10.90;99.90
7846;DHT22;3968;51.424;6.788;2023-02-16T18:26:44;11.00;99.90
7846;DHT22;3968;51.424;6.788;2023-02-16T18:29:10;11.00;99.90
7846;DHT22;3968;51.424;6.788;2023-02-16T18:31:36;11.00;99.90
7846;DHT22;3968;51.424;6.788;2023-02-16T18:34:05;11.00;99.90
7846;DHT22;3968;51.424;6.788;2023-02-16T18:36:31;11.00;99.90
7846;DHT22;3968;51.424;6.788;2023-02-16T18:38:56;11.00;99.90
7846;DHT22;3968;51.424;6.788;2023-02-16T18:41:22;11.00;99.90
7846;DHT22;3968;51.424;6.788;2023-02-16T18:46:15;11.00;99.90
7846;DHT22;3968;51.424;6.788;2023-02-16T18:48:43;11.00;99.90
7846;DHT22;3968;51.424;6.788;2023-02-16T18:51:09;11.00;99.90
7846;DHT22;3968;51.424;6.788;2023-02-16T18:53:36;11.00;99.90
7846;DHT22;3968;51.424;6.788;2023-02-16T18:56:06;11.00;99.90
7846;DHT22;3968;51.424;6.788;2023-02-16T18:58:32;11.00;99.90
7846;DHT22;3968;51.424;6.788;2023-02-16T19:00:58;11.00;99.90
7846;DHT22;3968;51.424;6.788;2023-02-16T19:03:24;11.00;99.90
7846;DHT22;3968;51.424;6.788;2023-02-16T19:05:49;11.00;99.90
7846;DHT22;3968;51.424;6.788;2023-02-16T19:08:15;10.90;99.90
7846;DHT22;3968;51.424;6.788;2023-02-16T19:10:41;11.00;99.90
7846;DHT22;3968;51.424;6.788;2023-02-16T19:13:06;11.00;99.90
7846;DHT22;3968;51.424;6.788;2023-02-16T19:15:33;10.90;99.90